sensor_id;sensor_type;location;lat;lon;timestamp;pressure;altitude;pressure_sealevel;temperature
76476;BMP280;65308;50.078;14.854;2023-09-19T00:00:16;98603.81;;;20.79
76476;BMP280;65308;50.078;14.854;2023-09-19T00:02:52;98608.59;;;20.73
76476;BMP280;65308;50.078;14.854;2023-09-19T00:05:19;98607.25;;;20.66
76476;BMP280;65308;50.078;14.854;2023-09-19T00:07:49;98595.97;;;20.62
76476;BMP280;65308;50.078;14.854;2023-09-19T00:10:16;98610.63;;;20.59
76476;BMP280;65308;50.078;14.854;2023-09-19T00:12:44;98606.97;;;20.57
76476;BMP280;65308;50.078;14.854;2023-09-19T00:15:11;98608.75;;;20.54
76476;BMP280;65308;50.078;14.854;2023-09-19T00:17:37;98605.28;;;20.40
76476;BMP280;65308;50.078;14.854;2023-09-19T00:20:08;98602.38;;;20.38
76476;BMP280;65308;50.078;14.854;2023-09-19T00:22:39;98608.88;;;20.35
76476;BMP280;65308;50.078;14.854;2023-09-19T00:25:07;98605.94;;;20.33
76476;BMP280;65308;50.078;14.854;2023-09-19T00:27:35;98608.44;;;20.31
76476;BMP280;65308;50.078;14.854;2023-09-19T00:30:05;98605.13;;;20.25
76476;BMP280;65308;50.078;14.854;2023-09-19T00:32:34;98604.69;;;20.21
76476;BMP280;65308;50.078;14.854;2023-09-19T00:35:03;98613.66;;;20.16
76476;BMP280;65308;50.078;14.854;2023-09-19T00:37:31;98611.66;;;20.03
76476;BMP280;65308;50.078;14.854;2023-09-19T00:39:58;98618.13;;;20.00
76476;BMP280;65308;50.078;14.854;2023-09-19T00:42:25;98615.22;;;19.98
76476;BMP280;65308;50.078;14.854;2023-09-19T00:44:52;98618.03;;;19.93
76476;BMP280;65308;50.078;14.854;2023-09-19T00:47:19;98624.81;;;19.86
76476;BMP280;65308;50.078;14.854;2023-09-19T00:49:46;98623.41;;;19.79
76476;BMP280;65308;50.078;14.854;2023-09-19T00:52:16;98620.38;;;19.70
76476;BMP280;65308;50.078;14.854;2023-09-19T00:54:46;98615.22;;;19.53
76476;BMP280;65308;50.078;14.854;2023-09-19T00:57:13;98616.03;;;19.48
76476;BMP280;65308;50.078;14.854;2023-09-19T00:59:45;98617.59;;;19.43
76476;BMP280;65308;50.078;14.854;2023-09-19T01:02:13;98614.97;;;19.38
76476;BMP280;65308;50.078;14.854;2023-09-19T01:04:41;98619.22;;;19.33
76476;BMP280;65308;50.078;14.854;2023-09-19T01:07:08;98610.88;;;19.31
76476;BMP280;65308;50.078;14.854;2023-09-19T01:09:36;98618.13;;;19.23
76476;BMP280;65308;50.078;14.854;2023-09-19T01:12:07;98615.00;;;19.19
76476;BMP280;65308;50.078;14.854;2023-09-19T01:14:42;98615.25;;;19.15
76476;BMP280;65308;50.078;14.854;2023-09-19T01:17:16;98616.31;;;19.12
76476;BMP280;65308;50.078;14.854;2023-09-19T01:20:03;98614.59;;;19.09
76476;BMP280;65308;50.078;14.854;2023-09-19T01:22:45;98615.41;;;19.04
76476;BMP280;65308;50.078;14.854;2023-09-19T01:25:42;98609.31;;;18.98
76476;BMP280;65308;50.078;14.854;2023-09-19T01:28:20;98604.25;;;18.89
76476;BMP280;65308;50.078;14.854;2023-09-19T01:30:58;98595.91;;;18.87
76476;BMP280;65308;50.078;14.854;2023-09-19T01:33:28;98598.84;;;18.89
76476;BMP280;65308;50.078;14.854;2023-09-19T01:35:59;98587.53;;;18.84
76476;BMP280;65308;50.078;14.854;2023-09-19T01:38:26;98593.06;;;18.79
76476;BMP280;65308;50.078;14.854;2023-09-19T01:40:57;98600.75;;;18.75
76476;BMP280;65308;50.078;14.854;2023-09-19T01:43:32;98600.03;;;18.74
76476;BMP280;65308;50.078;14.854;2023-09-19T01:46:07;98597.06;;;18.72
76476;BMP280;65308;50.078;14.854;2023-09-19T01:48:41;98598.13;;;18.69
76476;BMP280;65308;50.078;14.854;2023-09-19T01:51:14;98590.75;;;18.64
76476;BMP280;65308;50.078;14.854;2023-09-19T01:53:53;98590.31;;;18.60
76476;BMP280;65308;50.078;14.854;2023-09-19T01:56:25;98592.81;;;18.58
76476;BMP280;65308;50.078;14.854;2023-09-19T01:59:04;98577.78;;;18.57
76476;BMP280;65308;50.078;14.854;2023-09-19T02:01:33;98582.25;;;18.54
76476;BMP280;65308;50.078;14.854;2023-09-19T02:04:03;98581.06;;;18.50
76476;BMP280;65308;50.078;14.854;2023-09-19T02:06:29;98580.50;;;18.32
76476;BMP280;65308;50.078;14.854;2023-09-19T02:08:56;98578.78;;;18.35
76476;BMP280;65308;50.078;14.854;2023-09-19T02:11:25;98582.75;;;18.34
76476;BMP280;65308;50.078;14.854;2023-09-19T02:13:52;98582.19;;;18.36
76476;BMP280;65308;50.078;14.854;2023-09-19T02:16:20;98576.13;;;18.29
76476;BMP280;65308;50.078;14.854;2023-09-19T02:18:49;98581.09;;;18.25
76476;BMP280;65308;50.078;14.854;2023-09-19T02:21:16;98576.47;;;18.20
76476;BMP280;65308;50.078;14.854;2023-09-19T02:23:43;98578.47;;;18.14
76476;BMP280;65308;50.078;14.854;2023-09-19T02:26:10;98580.13;;;18.23
76476;BMP280;65308;50.078;14.854;2023-09-19T02:28:38;98570.47;;;18.27
76476;BMP280;65308;50.078;14.854;2023-09-19T02:31:04;98570.94;;;18.31
76476;BMP280;65308;50.078;14.854;2023-09-19T02:33:31;98560.81;;;18.32
76476;BMP280;65308;50.078;14.854;2023-09-19T02:36:02;98562.47;;;18.41
76476;BMP280;65308;50.078;14.854;2023-09-19T02:38:30;98562.41;;;18.46
76476;BMP280;65308;50.078;14.854;2023-09-19T02:40:57;98559.38;;;18.50
76476;BMP280;65308;50.078;14.854;2023-09-19T02:43:24;98562.47;;;18.41
76476;BMP280;65308;50.078;14.854;2023-09-19T02:45:51;98562.47;;;18.41
76476;BMP280;65308;50.078;14.854;2023-09-19T02:48:19;98556.25;;;18.46
76476;BMP280;65308;50.078;14.854;2023-09-19T02:50:46;98552.72;;;18.51
76476;BMP280;65308;50.078;14.854;2023-09-19T02:53:14;98561.91;;;18.48
76476;BMP280;65308;50.078;14.854;2023-09-19T02:55:41;98551.06;;;18.48
76476;BMP280;65308;50.078;14.854;2023-09-19T02:58:09;98550.03;;;18.51
76476;BMP280;65308;50.078;14.854;2023-09-19T03:00:37;98549.22;;;18.56
76476;BMP280;65308;50.078;14.854;2023-09-19T03:03:04;98550.16;;;18.58
76476;BMP280;65308;50.078;14.854;2023-09-19T03:05:32;98560.22;;;18.64
76476;BMP280;65308;50.078;14.854;2023-09-19T03:08:00;98558.81;;;18.57
76476;BMP280;65308;50.078;14.854;2023-09-19T03:10:29;98563.00;;;18.58
76476;BMP280;65308;50.078;14.854;2023-09-19T03:12:57;98563.81;;;18.53
76476;BMP280;65308;50.078;14.854;2023-09-19T03:15:25;98560.06;;;18.56
76476;BMP280;65308;50.078;14.854;2023-09-19T03:17:52;98574.66;;;18.53
76476;BMP280;65308;50.078;14.854;2023-09-19T03:20:19;98569.88;;;18.59
76476;BMP280;65308;50.078;14.854;2023-09-19T03:22:46;98579.91;;;18.64
76476;BMP280;65308;50.078;14.854;2023-09-19T03:25:13;98581.16;;;18.63
76476;BMP280;65308;50.078;14.854;2023-09-19T03:27:42;98577.78;;;18.57
76476;BMP280;65308;50.078;14.854;2023-09-19T03:30:09;98571.00;;;18.69
76476;BMP280;65308;50.078;14.854;2023-09-19T03:32:43;98565.19;;;18.78
76476;BMP280;65308;50.078;14.854;2023-09-19T03:35:10;98567.31;;;18.86
76476;BMP280;65308;50.078;14.854;2023-09-19T03:37:39;98579.16;;;18.88
76476;BMP280;65308;50.078;14.854;2023-09-19T03:40:07;98571.16;;;18.96
76476;BMP280;65308;50.078;14.854;2023-09-19T03:42:38;98574.59;;;18.96
76476;BMP280;65308;50.078;14.854;2023-09-19T03:45:07;98573.13;;;18.95
76476;BMP280;65308;50.078;14.854;2023-09-19T03:47:37;98576.25;;;18.99
76476;BMP280;65308;50.078;14.854;2023-09-19T03:50:05;98580.66;;;19.02
76476;BMP280;65308;50.078;14.854;2023-09-19T03:52:32;98579.91;;;19.02
76476;BMP280;65308;50.078;14.854;2023-09-19T03:54:59;98580.22;;;18.98
76476;BMP280;65308;50.078;14.854;2023-09-19T03:57:27;98572.81;;;18.99
76476;BMP280;65308;50.078;14.854;2023-09-19T03:59:54;98572.63;;;18.97
76476;BMP280;65308;50.078;14.854;2023-09-19T04:02:23;98567.75;;;18.90
76476;BMP280;65308;50.078;14.854;2023-09-19T04:04:50;98574.44;;;18.89
76476;BMP280;65308;50.078;14.854;2023-09-19T04:07:17;98579.50;;;18.98
76476;BMP280;65308;50.078;14.854;2023-09-19T04:09:47;98589.44;;;18.90
76476;BMP280;65308;50.078;14.854;2023-09-19T04:12:14;98588.72;;;18.89
76476;BMP280;65308;50.078;14.854;2023-09-19T04:14:43;98594.75;;;19.01
76476;BMP280;65308;50.078;14.854;2023-09-19T04:17:10;98608.97;;;19.07
76476;BMP280;65308;50.078;14.854;2023-09-19T04:19:38;98610.56;;;19.16
76476;BMP280;65308;50.078;14.854;2023-09-19T04:22:09;98619.66;;;19.18
76476;BMP280;65308;50.078;14.854;2023-09-19T04:24:36;98623.03;;;19.24
76476;BMP280;65308;50.078;14.854;2023-09-19T04:27:04;98628.91;;;19.28
76476;BMP280;65308;50.078;14.854;2023-09-19T04:29:31;98637.44;;;19.32
76476;BMP280;65308;50.078;14.854;2023-09-19T04:31:58;98640.13;;;19.38
76476;BMP280;65308;50.078;14.854;2023-09-19T04:34:25;98643.69;;;19.46
76476;BMP280;65308;50.078;14.854;2023-09-19T04:36:54;98646.84;;;19.50
76476;BMP280;65308;50.078;14.854;2023-09-19T04:39:21;98654.78;;;19.48
76476;BMP280;65308;50.078;14.854;2023-09-19T04:41:51;98662.19;;;19.48
76476;BMP280;65308;50.078;14.854;2023-09-19T04:44:18;98657.34;;;19.41
76476;BMP280;65308;50.078;14.854;2023-09-19T04:46:46;98664.22;;;19.42
76476;BMP280;65308;50.078;14.854;2023-09-19T04:49:13;98663.63;;;19.49
76476;BMP280;65308;50.078;14.854;2023-09-19T04:51:40;98670.75;;;19.52
76476;BMP280;65308;50.078;14.854;2023-09-19T04:54:09;98672.34;;;19.60
76476;BMP280;65308;50.078;14.854;2023-09-19T04:56:36;98668.47;;;19.56
76476;BMP280;65308;50.078;14.854;2023-09-19T04:59:05;98678.09;;;19.57
76476;BMP280;65308;50.078;14.854;2023-09-19T05:01:32;98685.69;;;19.58
76476;BMP280;65308;50.078;14.854;2023-09-19T05:03:59;98683.94;;;19.61
76476;BMP280;65308;50.078;14.854;2023-09-19T05:06:26;98681.78;;;19.73
76476;BMP280;65308;50.078;14.854;2023-09-19T05:08:52;98682.53;;;19.73
76476;BMP280;65308;50.078;14.854;2023-09-19T05:11:21;98681.88;;;19.67
76476;BMP280;65308;50.078;14.854;2023-09-19T05:13:50;98676.81;;;19.58
76476;BMP280;65308;50.078;14.854;2023-09-19T05:16:18;98675.06;;;19.60
76476;BMP280;65308;50.078;14.854;2023-09-19T05:18:44;98674.72;;;19.51
76476;BMP280;65308;50.078;14.854;2023-09-19T05:21:11;98679.84;;;19.54
76476;BMP280;65308;50.078;14.854;2023-09-19T05:23:38;98675.50;;;19.46
76476;BMP280;65308;50.078;14.854;2023-09-19T05:26:05;98683.75;;;19.40
76476;BMP280;65308;50.078;14.854;2023-09-19T05:28:34;98679.78;;;19.41
76476;BMP280;65308;50.078;14.854;2023-09-19T05:31:01;98693.44;;;19.35
76476;BMP280;65308;50.078;14.854;2023-09-19T05:33:28;98688.22;;;19.38
76476;BMP280;65308;50.078;14.854;2023-09-19T05:35:57;98690.19;;;19.37
76476;BMP280;65308;50.078;14.854;2023-09-19T05:38:24;98696.06;;;19.41
76476;BMP280;65308;50.078;14.854;2023-09-19T05:40:52;98686.59;;;19.48
76476;BMP280;65308;50.078;14.854;2023-09-19T05:43:19;98693.72;;;19.51
76476;BMP280;65308;50.078;14.854;2023-09-19T05:45:48;98686.38;;;19.46
76476;BMP280;65308;50.078;14.854;2023-09-19T05:48:17;98691.94;;;19.53
76476;BMP280;65308;50.078;14.854;2023-09-19T05:50:46;98700.22;;;19.61
76476;BMP280;65308;50.078;14.854;2023-09-19T05:53:14;98695.44;;;19.67
76476;BMP280;65308;50.078;14.854;2023-09-19T05:55:41;98703.38;;;19.65
76476;BMP280;65308;50.078;14.854;2023-09-19T05:58:08;98704.06;;;19.52
76476;BMP280;65308;50.078;14.854;2023-09-19T06:00:35;98707.50;;;19.53
76476;BMP280;65308;50.078;14.854;2023-09-19T06:03:04;98714.38;;;19.54
76476;BMP280;65308;50.078;14.854;2023-09-19T06:05:30;98729.34;;;19.42
76476;BMP280;65308;50.078;14.854;2023-09-19T06:07:58;98723.31;;;19.49
76476;BMP280;65308;50.078;14.854;2023-09-19T06:10:26;98722.63;;;19.48
76476;BMP280;65308;50.078;14.854;2023-09-19T06:12:53;98721.34;;;19.49
76476;BMP280;65308;50.078;14.854;2023-09-19T06:15:20;98717.91;;;19.49
76476;BMP280;65308;50.078;14.854;2023-09-19T06:17:49;98733.94;;;19.52
76476;BMP280;65308;50.078;14.854;2023-09-19T06:20:20;98728.91;;;19.56
76476;BMP280;65308;50.078;14.854;2023-09-19T06:22:52;98736.91;;;19.49
76476;BMP280;65308;50.078;14.854;2023-09-19T06:25:21;98740.34;;;19.49
76476;BMP280;65308;50.078;14.854;2023-09-19T06:27:52;98732.50;;;19.46
76476;BMP280;65308;50.078;14.854;2023-09-19T06:30:21;98738.75;;;19.41
76476;BMP280;65308;50.078;14.854;2023-09-19T06:32:49;98745.59;;;19.47
76476;BMP280;65308;50.078;14.854;2023-09-19T06:35:17;98749.03;;;19.48
76476;BMP280;65308;50.078;14.854;2023-09-19T06:37:44;98750.94;;;19.53
76476;BMP280;65308;50.078;14.854;2023-09-19T06:40:12;98753.41;;;19.51
76476;BMP280;65308;50.078;14.854;2023-09-19T06:42:41;98758.25;;;19.58
76476;BMP280;65308;50.078;14.854;2023-09-19T06:45:08;98756.44;;;19.66
76476;BMP280;65308;50.078;14.854;2023-09-19T06:47:37;98766.72;;;19.73
76476;BMP280;65308;50.078;14.854;2023-09-19T06:50:04;98769.69;;;19.88
76476;BMP280;65308;50.078;14.854;2023-09-19T06:52:33;98765.63;;;19.95
76476;BMP280;65308;50.078;14.854;2023-09-19T06:55:00;98767.28;;;20.17
76476;BMP280;65308;50.078;14.854;2023-09-19T06:57:28;98771.50;;;20.31
76476;BMP280;65308;50.078;14.854;2023-09-19T06:59:56;98778.63;;;20.34
76476;BMP280;65308;50.078;14.854;2023-09-19T07:02:23;98783.81;;;20.51
76476;BMP280;65308;50.078;14.854;2023-09-19T07:04:49;98796.69;;;20.77
76476;BMP280;65308;50.078;14.854;2023-09-19T07:07:16;98798.88;;;21.05
76476;BMP280;65308;50.078;14.854;2023-09-19T07:09:44;98804.66;;;21.15
76476;BMP280;65308;50.078;14.854;2023-09-19T07:12:14;98800.97;;;21.39
76476;BMP280;65308;50.078;14.854;2023-09-19T07:14:45;98807.78;;;21.66
76476;BMP280;65308;50.078;14.854;2023-09-19T07:17:12;98806.63;;;21.96
76476;BMP280;65308;50.078;14.854;2023-09-19T07:19:44;98801.31;;;22.32
76476;BMP280;65308;50.078;14.854;2023-09-19T07:22:13;98806.88;;;22.76
76476;BMP280;65308;50.078;14.854;2023-09-19T07:24:40;98806.28;;;22.98
76476;BMP280;65308;50.078;14.854;2023-09-19T07:27:09;98801.84;;;23.24
76476;BMP280;65308;50.078;14.854;2023-09-19T07:29:36;98815.94;;;23.51
76476;BMP280;65308;50.078;14.854;2023-09-19T07:32:04;98820.16;;;23.67
76476;BMP280;65308;50.078;14.854;2023-09-19T07:34:32;98821.34;;;24.10
76476;BMP280;65308;50.078;14.854;2023-09-19T07:36:59;98824.16;;;24.73
76476;BMP280;65308;50.078;14.854;2023-09-19T07:39:26;98826.31;;;24.97
76476;BMP280;65308;50.078;14.854;2023-09-19T07:41:52;98836.22;;;25.25
76476;BMP280;65308;50.078;14.854;2023-09-19T07:44:22;98830.53;;;25.63
76476;BMP280;65308;50.078;14.854;2023-09-19T07:46:52;98831.16;;;25.54
76476;BMP280;65308;50.078;14.854;2023-09-19T07:49:20;98838.00;;;25.38
76476;BMP280;65308;50.078;14.854;2023-09-19T07:51:47;98842.56;;;25.35
76476;BMP280;65308;50.078;14.854;2023-09-19T07:54:13;98843.25;;;25.44
76476;BMP280;65308;50.078;14.854;2023-09-19T07:56:46;98846.66;;;25.84
76476;BMP280;65308;50.078;14.854;2023-09-19T07:59:13;98853.47;;;26.26
76476;BMP280;65308;50.078;14.854;2023-09-19T08:01:45;98857.31;;;26.82
76476;BMP280;65308;50.078;14.854;2023-09-19T08:04:16;98856.16;;;27.29
76476;BMP280;65308;50.078;14.854;2023-09-19T08:06:44;98852.38;;;27.52
76476;BMP280;65308;50.078;14.854;2023-09-19T08:09:11;98866.22;;;27.81
76476;BMP280;65308;50.078;14.854;2023-09-19T08:11:46;98866.06;;;28.25
76476;BMP280;65308;50.078;14.854;2023-09-19T08:14:12;98863.34;;;28.54
76476;BMP280;65308;50.078;14.854;2023-09-19T08:16:45;98868.81;;;28.83
76476;BMP280;65308;50.078;14.854;2023-09-19T08:19:13;98874.59;;;28.97
76476;BMP280;65308;50.078;14.854;2023-09-19T08:21:40;98868.59;;;29.29
76476;BMP280;65308;50.078;14.854;2023-09-19T08:24:10;98874.97;;;29.63
76476;BMP280;65308;50.078;14.854;2023-09-19T08:26:37;98874.03;;;29.80
76476;BMP280;65308;50.078;14.854;2023-09-19T08:29:04;98874.22;;;29.72
76476;BMP280;65308;50.078;14.854;2023-09-19T08:31:32;98878.66;;;29.56
76476;BMP280;65308;50.078;14.854;2023-09-19T08:34:01;98869.44;;;29.42
76476;BMP280;65308;50.078;14.854;2023-09-19T08:36:32;98878.44;;;29.32
76476;BMP280;65308;50.078;14.854;2023-09-19T08:38:59;98867.78;;;29.48
76476;BMP280;65308;50.078;14.854;2023-09-19T08:41:26;98872.63;;;29.38
76476;BMP280;65308;50.078;14.854;2023-09-19T08:43:53;98876.91;;;29.10
76476;BMP280;65308;50.078;14.854;2023-09-19T08:46:20;98881.41;;;29.15
76476;BMP280;65308;50.078;14.854;2023-09-19T08:48:54;98885.31;;;29.22
76476;BMP280;65308;50.078;14.854;2023-09-19T08:51:27;98885.25;;;29.31
76476;BMP280;65308;50.078;14.854;2023-09-19T08:54:03;98890.00;;;29.50
76476;BMP280;65308;50.078;14.854;2023-09-19T08:56:32;98892.88;;;29.62
76476;BMP280;65308;50.078;14.854;2023-09-19T08:59:01;98880.81;;;29.57
76476;BMP280;65308;50.078;14.854;2023-09-19T09:01:29;98881.16;;;29.42
76476;BMP280;65308;50.078;14.854;2023-09-19T09:03:58;98885.31;;;29.22
76476;BMP280;65308;50.078;14.854;2023-09-19T09:06:26;98887.66;;;29.06
76476;BMP280;65308;50.078;14.854;2023-09-19T09:08:55;98891.31;;;28.89
76476;BMP280;65308;50.078;14.854;2023-09-19T09:11:21;98893.59;;;28.93
76476;BMP280;65308;50.078;14.854;2023-09-19T09:13:50;98897.94;;;29.15
76476;BMP280;65308;50.078;14.854;2023-09-19T09:16:17;98891.06;;;29.35
76476;BMP280;65308;50.078;14.854;2023-09-19T09:18:44;98895.91;;;29.56
76476;BMP280;65308;50.078;14.854;2023-09-19T09:21:12;98894.84;;;29.71
76476;BMP280;65308;50.078;14.854;2023-09-19T09:26:12;98891.28;;;29.90
76476;BMP280;65308;50.078;14.854;2023-09-19T09:28:52;98900.53;;;29.94
76476;BMP280;65308;50.078;14.854;2023-09-19T09:31:27;98905.06;;;29.90
76476;BMP280;65308;50.078;14.854;2023-09-19T09:34:32;98908.91;;;29.75
76476;BMP280;65308;50.078;14.854;2023-09-19T09:36:59;98906.72;;;29.74
76476;BMP280;65308;50.078;14.854;2023-09-19T09:39:31;98910.75;;;29.82
76476;BMP280;65308;50.078;14.854;2023-09-19T09:42:01;98917.69;;;29.93
76476;BMP280;65308;50.078;14.854;2023-09-19T09:44:32;98911.69;;;29.96
76476;BMP280;65308;50.078;14.854;2023-09-19T09:46:59;98915.84;;;30.07
76476;BMP280;65308;50.078;14.854;2023-09-19T09:49:48;98912.13;;;30.45
76476;BMP280;65308;50.078;14.854;2023-09-19T09:52:23;98908.84;;;30.37
76476;BMP280;65308;50.078;14.854;2023-09-19T09:55:01;98908.69;;;30.35
76476;BMP280;65308;50.078;14.854;2023-09-19T09:57:32;98915.34;;;30.42
76476;BMP280;65308;50.078;14.854;2023-09-19T09:59:59;98907.13;;;30.53
76476;BMP280;65308;50.078;14.854;2023-09-19T10:02:42;98910.59;;;30.33
76476;BMP280;65308;50.078;14.854;2023-09-19T10:05:14;98905.56;;;30.29
76476;BMP280;65308;50.078;14.854;2023-09-19T10:07:46;98905.50;;;29.86
76476;BMP280;65308;50.078;14.854;2023-09-19T10:10:39;98902.47;;;29.82
76476;BMP280;65308;50.078;14.854;2023-09-19T10:13:20;98902.69;;;29.65
76476;BMP280;65308;50.078;14.854;2023-09-19T10:15:50;98888.78;;;29.63
76476;BMP280;65308;50.078;14.854;2023-09-19T10:18:20;98896.59;;;29.97
76476;BMP280;65308;50.078;14.854;2023-09-19T10:20:48;98895.97;;;29.99
76476;BMP280;65308;50.078;14.854;2023-09-19T10:23:17;98894.78;;;30.12
76476;BMP280;65308;50.078;14.854;2023-09-19T10:25:48;98906.94;;;30.40
76476;BMP280;65308;50.078;14.854;2023-09-19T10:28:16;98892.53;;;30.74
76476;BMP280;65308;50.078;14.854;2023-09-19T10:30:49;98899.09;;;31.02
76476;BMP280;65308;50.078;14.854;2023-09-19T10:35:54;98899.41;;;31.30
76476;BMP280;65308;50.078;14.854;2023-09-19T10:38:24;98906.50;;;31.33
76476;BMP280;65308;50.078;14.854;2023-09-19T10:40:53;98901.06;;;31.35
76476;BMP280;65308;50.078;14.854;2023-09-19T10:43:21;98900.47;;;31.25
76476;BMP280;65308;50.078;14.854;2023-09-19T10:46:00;98895.19;;;31.29
76476;BMP280;65308;50.078;14.854;2023-09-19T10:48:29;98900.22;;;31.32
76476;BMP280;65308;50.078;14.854;2023-09-19T10:51:02;98899.50;;;31.20
76476;BMP280;65308;50.078;14.854;2023-09-19T10:53:43;98903.09;;;31.11
76476;BMP280;65308;50.078;14.854;2023-09-19T10:56:17;98904.03;;;30.59
76476;BMP280;65308;50.078;14.854;2023-09-19T10:58:44;98897.00;;;30.25
76476;BMP280;65308;50.078;14.854;2023-09-19T11:01:20;98895.28;;;29.98
76476;BMP280;65308;50.078;14.854;2023-09-19T11:06:23;98891.03;;;29.45
76476;BMP280;65308;50.078;14.854;2023-09-19T11:08:52;98885.91;;;29.51
76476;BMP280;65308;50.078;14.854;2023-09-19T11:12:07;98894.59;;;29.67
76476;BMP280;65308;50.078;14.854;2023-09-19T11:14:40;98883.06;;;29.80
76476;BMP280;65308;50.078;14.854;2023-09-19T11:17:38;98896.28;;;29.72
76476;BMP280;65308;50.078;14.854;2023-09-19T11:20:23;98887.06;;;29.58
76476;BMP280;65308;50.078;14.854;2023-09-19T11:23:23;98882.75;;;29.45
76476;BMP280;65308;50.078;14.854;2023-09-19T11:25:51;98878.63;;;29.25
76476;BMP280;65308;50.078;14.854;2023-09-19T11:28:30;98888.06;;;29.12
76476;BMP280;65308;50.078;14.854;2023-09-19T11:31:41;98880.88;;;28.78
76476;BMP280;65308;50.078;14.854;2023-09-19T11:34:41;98886.22;;;28.66
76476;BMP280;65308;50.078;14.854;2023-09-19T11:40:13;98876.81;;;28.40
76476;BMP280;65308;50.078;14.854;2023-09-19T11:42:43;98884.63;;;28.54
76476;BMP280;65308;50.078;14.854;2023-09-19T11:48:26;98884.16;;;28.38
76476;BMP280;65308;50.078;14.854;2023-09-19T11:50:56;98878.97;;;28.32
76476;BMP280;65308;50.078;14.854;2023-09-19T11:53:31;98877.63;;;28.23
76476;BMP280;65308;50.078;14.854;2023-09-19T11:56:01;98875.19;;;28.18
76476;BMP280;65308;50.078;14.854;2023-09-19T11:58:30;98878.16;;;28.03
76476;BMP280;65308;50.078;14.854;2023-09-19T12:01:00;98893.66;;;27.98
76476;BMP280;65308;50.078;14.854;2023-09-19T12:03:29;98888.53;;;27.85
76476;BMP280;65308;50.078;14.854;2023-09-19T12:05:59;98888.84;;;27.89
76476;BMP280;65308;50.078;14.854;2023-09-19T12:08:28;98887.44;;;27.98
76476;BMP280;65308;50.078;14.854;2023-09-19T12:10:55;98882.78;;;28.00
76476;BMP280;65308;50.078;14.854;2023-09-19T12:13:23;98877.31;;;28.10
76476;BMP280;65308;50.078;14.854;2023-09-19T12:15:51;98879.88;;;27.88
76476;BMP280;65308;50.078;14.854;2023-09-19T12:18:27;98881.59;;;27.93
76476;BMP280;65308;50.078;14.854;2023-09-19T12:20:55;98878.00;;;28.01
76476;BMP280;65308;50.078;14.854;2023-09-19T12:23:24;98885.69;;;28.02
76476;BMP280;65308;50.078;14.854;2023-09-19T12:25:52;98875.72;;;28.07
76476;BMP280;65308;50.078;14.854;2023-09-19T12:28:23;98878.50;;;28.16
76476;BMP280;65308;50.078;14.854;2023-09-19T12:31:06;98875.00;;;28.06
76476;BMP280;65308;50.078;14.854;2023-09-19T12:36:20;98868.03;;;28.05
76476;BMP280;65308;50.078;14.854;2023-09-19T12:38:52;98872.34;;;27.89
76476;BMP280;65308;50.078;14.854;2023-09-19T12:41:20;98863.84;;;28.04
76476;BMP280;65308;50.078;14.854;2023-09-19T12:43:57;98880.72;;;27.91
76476;BMP280;65308;50.078;14.854;2023-09-19T12:46:25;98873.03;;;27.80
76476;BMP280;65308;50.078;14.854;2023-09-19T12:49:16;98875.25;;;27.54
76476;BMP280;65308;50.078;14.854;2023-09-19T12:51:45;98870.13;;;27.41
76476;BMP280;65308;50.078;14.854;2023-09-19T12:54:14;98865.97;;;27.23
76476;BMP280;65308;50.078;14.854;2023-09-19T12:56:45;98876.78;;;27.21
76476;BMP280;65308;50.078;14.854;2023-09-19T13:02:32;98869.50;;;27.33
76476;BMP280;65308;50.078;14.854;2023-09-19T13:04:59;98866.78;;;27.43
76476;BMP280;65308;50.078;14.854;2023-09-19T13:07:42;98866.91;;;27.35
76476;BMP280;65308;50.078;14.854;2023-09-19T13:10:13;98868.13;;;27.24
76476;BMP280;65308;50.078;14.854;2023-09-19T13:12:43;98873.00;;;27.16
76476;BMP280;65308;50.078;14.854;2023-09-19T13:15:14;98870.19;;;27.06
76476;BMP280;65308;50.078;14.854;2023-09-19T13:17:45;98865.66;;;27.01
76476;BMP280;65308;50.078;14.854;2023-09-19T13:20:23;98875.59;;;26.97
76476;BMP280;65308;50.078;14.854;2023-09-19T13:22:58;98866.97;;;26.83
76476;BMP280;65308;50.078;14.854;2023-09-19T13:25:33;98856.81;;;26.93
76476;BMP280;65308;50.078;14.854;2023-09-19T13:28:00;98854.94;;;26.96
76476;BMP280;65308;50.078;14.854;2023-09-19T13:30:30;98851.16;;;26.91
76476;BMP280;65308;50.078;14.854;2023-09-19T13:33:06;98859.56;;;26.93
76476;BMP280;65308;50.078;14.854;2023-09-19T13:35:33;98852.94;;;26.79
76476;BMP280;65308;50.078;14.854;2023-09-19T13:38:00;98858.19;;;26.67
76476;BMP280;65308;50.078;14.854;2023-09-19T13:40:26;98855.53;;;26.60
76476;BMP280;65308;50.078;14.854;2023-09-19T13:42:57;98853.25;;;26.66
76476;BMP280;65308;50.078;14.854;2023-09-19T13:45:24;98854.56;;;26.65
76476;BMP280;65308;50.078;14.854;2023-09-19T13:47:52;98857.94;;;26.56
76476;BMP280;65308;50.078;14.854;2023-09-19T13:50:19;98863.28;;;26.54
76476;BMP280;65308;50.078;14.854;2023-09-19T13:52:49;98853.44;;;26.51
76476;BMP280;65308;50.078;14.854;2023-09-19T13:55:16;98852.59;;;26.40
76476;BMP280;65308;50.078;14.854;2023-09-19T13:57:45;98861.63;;;26.33
76476;BMP280;65308;50.078;14.854;2023-09-19T14:00:14;98859.94;;;26.38
76476;BMP280;65308;50.078;14.854;2023-09-19T14:02:41;98857.50;;;26.42
76476;BMP280;65308;50.078;14.854;2023-09-19T14:05:09;98847.09;;;26.40
76476;BMP280;65308;50.078;14.854;2023-09-19T14:07:39;98850.16;;;26.27
76476;BMP280;65308;50.078;14.854;2023-09-19T14:10:07;98852.25;;;26.19
76476;BMP280;65308;50.078;14.854;2023-09-19T14:12:35;98853.88;;;26.22
76476;BMP280;65308;50.078;14.854;2023-09-19T14:15:03;98849.97;;;26.08
76476;BMP280;65308;50.078;14.854;2023-09-19T14:17:31;98849.25;;;25.82
76476;BMP280;65308;50.078;14.854;2023-09-19T14:19:58;98841.91;;;25.85
76476;BMP280;65308;50.078;14.854;2023-09-19T14:22:25;98845.00;;;25.89
76476;BMP280;65308;50.078;14.854;2023-09-19T14:24:51;98842.47;;;25.83
76476;BMP280;65308;50.078;14.854;2023-09-19T14:27:18;98846.50;;;25.75
76476;BMP280;65308;50.078;14.854;2023-09-19T14:29:45;98846.25;;;25.63
76476;BMP280;65308;50.078;14.854;2023-09-19T14:32:12;98843.41;;;25.46